Time;durP1;ratioP1;P1;durP2;ratioP2;P2;SDS_P1;SDS_P2;PMS_P1;PMS_P2;Temp;Humidity;BMP_temperature;BMP_pressure;BME280_temperature;BME280_humidity;BME280_pressure;Samples;Min_cycle;Max_cycle;Signal;HPM_P1;HPM_P2
2022/07/14 00:01:12;;;;;;;10.45;7.70;;;;;;;20.29;65.55;93251.44;4785636;29;20123;-74
2022/07/14 00:03:38;;;;;;;12.85;7.45;;;;;;;20.31;65.67;93248.44;4785729;30;20061;-74
2022/07/14 00:06:04;;;;;;;13.35;7.90;;;;;;;20.34;65.73;93247.81;4770521;30;20039;-74
2022/07/14 00:08:29;;;;;;;14.60;7.97;;;;;;;20.34;65.75;93243.25;4775992;29;20398;-75
2022/07/14 00:10:55;;;;;;;12.60;7.70;;;;;;;20.35;66.12;93244.81;4803151;29;20046;-75
2022/07/14 00:13:21;;;;;;;15.15;7.22;;;;;;;20.37;65.89;93244.47;4772724;29;20070;-74
2022/07/14 00:15:46;;;;;;;11.65;7.28;;;;;;;20.38;65.95;93243.38;4787499;29;20070;-75
2022/07/14 00:18:12;;;;;;;10.95;7.50;;;;;;;20.39;65.52;93239.63;4799502;29;20118;-74
2022/07/14 00:20:37;;;;;;;15.95;8.80;;;;;;;20.41;64.81;93241.94;4783739;29;20065;-74
2022/07/14 00:23:03;;;;;;;13.52;8.07;;;;;;;20.42;65.01;93244.25;4803635;29;20482;-75
2022/07/14 00:25:29;;;;;;;11.73;7.55;;;;;;;20.46;65.38;93245.16;4787542;29;20047;-74
2022/07/14 00:27:55;;;;;;;13.10;8.07;;;;;;;20.45;65.39;93235.66;4803706;29;20038;-74
2022/07/14 00:30:21;;;;;;;10.95;7.97;;;;;;;20.48;65.58;93239.53;4794420;29;20126;-74
2022/07/14 00:32:47;;;;;;;18.42;8.30;;;;;;;20.49;65.83;93243.72;4785624;30;20032;-74
2022/07/14 00:35:14;;;;;;;12.05;8.00;;;;;;;20.48;65.93;93234.97;4769118;30;20027;-74
2022/07/14 00:37:40;;;;;;;12.20;8.27;;;;;;;20.43;65.96;93232.53;4754716;30;20418;-75
2022/07/14 00:40:07;;;;;;;14.13;8.32;;;;;;;20.47;65.39;93241.41;4769847;29;20043;-74
2022/07/14 00:42:34;;;;;;;11.85;8.13;;;;;;;20.49;65.30;93239.22;4770344;30;20100;-74
2022/07/14 00:45:01;;;;;;;12.30;7.88;;;;;;;20.51;65.49;93241.50;4785412;30;20038;-75
2022/07/14 00:47:27;;;;;;;12.95;8.10;;;;;;;20.49;65.99;93241.88;4788198;29;20053;-75
2022/07/14 00:49:54;;;;;;;14.07;8.10;;;;;;;20.48;65.77;93234.22;4802655;29;20046;-75
2022/07/14 00:52:21;;;;;;;14.25;8.38;;;;;;;20.47;65.72;93235.31;4785746;29;20126;-75
2022/07/14 00:54:47;;;;;;;14.63;7.93;;;;;;;20.45;65.95;93225.00;4805986;29;20517;-74
2022/07/14 00:57:12;;;;;;;13.48;8.23;;;;;;;20.45;65.91;93232.22;4806328;29;20525;-75
2022/07/14 00:59:38;;;;;;;14.68;8.48;;;;;;;20.44;65.93;93223.44;4774734;30;20090;-74
2022/07/14 01:02:03;;;;;;;12.57;7.90;;;;;;;20.43;65.72;93224.56;4788879;30;20343;-74
2022/07/14 01:04:29;;;;;;;13.80;7.70;;;;;;;20.42;65.96;93223.00;4789642;29;20075;-74
2022/07/14 01:06:55;;;;;;;12.32;8.77;;;;;;;20.41;66.21;93216.13;4788578;30;20047;-74
2022/07/14 01:09:20;;;;;;;21.40;8.48;;;;;;;20.40;65.92;93214.59;4770210;29;20086;-75
2022/07/14 01:11:45;;;;;;;13.57;8.57;;;;;;;20.39;66.10;93213.03;4790384;29;20510;-74
2022/07/14 01:14:11;;;;;;;14.57;8.40;;;;;;;20.37;65.87;93205.38;4806357;29;20058;-75
2022/07/14 01:16:37;;;;;;;13.98;8.32;;;;;;;20.36;65.98;93214.47;4771353;30;20470;-74
2022/07/14 01:19:02;;;;;;;15.10;8.70;;;;;;;20.35;66.39;93217.44;4788460;29;20039;-74
2022/07/14 01:21:29;;;;;;;10.65;8.02;;;;;;;20.32;66.69;93207.47;4772074;30;20071;-75
2022/07/14 01:23:54;;;;;;;11.57;8.15;;;;;;;20.30;66.34;93210.44;4772449;30;20579;-75
2022/07/14 01:26:20;;;;;;;14.70;9.30;;;;;;;20.28;66.66;93201.25;4773155;30;20392;-74
2022/07/14 01:28:46;;;;;;;14.85;8.57;;;;;;;20.26;66.31;93198.16;4772115;29;20699;-75
2022/07/14 01:31:13;;;;;;;15.00;9.13;;;;;;;20.25;66.63;93199.25;4772573;30;20039;-74
2022/07/14 01:33:39;;;;;;;15.23;8.40;;;;;;;20.16;66.85;93189.50;4772101;30;20387;-74
2022/07/14 01:36:05;;;;;;;23.70;9.30;;;;;;;20.21;67.01;93195.72;4769449;29;20274;-74
2022/07/14 01:38:30;;;;;;;14.77;9.23;;;;;;;20.17;66.76;93191.06;4789978;29;20485;-74
2022/07/14 01:40:57;;;;;;;15.32;8.40;;;;;;;20.16;66.69;93194.03;4806253;29;20111;-74
2022/07/14 01:43:23;;;;;;;16.20;8.65;;;;;;;20.16;66.65;93191.38;4789844;29;20043;-74
2022/07/14 01:45:49;;;;;;;12.50;8.65;;;;;;;20.13;66.97;93184.84;4782939;29;20050;-74
2022/07/14 01:48:15;;;;;;;17.85;8.60;;;;;;;20.12;66.33;93193.91;4772265;30;20051;-74
2022/07/14 01:50:41;;;;;;;15.50;8.55;;;;;;;20.11;66.70;93187.03;4771762;30;20093;-74
2022/07/14 01:53:06;;;;;;;14.00;9.10;;;;;;;20.09;66.53;93194.56;4771748;30;20035;-74
2022/07/14 01:55:34;;;;;;;14.43;9.15;;;;;;;20.07;66.71;93185.38;4771563;29;20041;-74
2022/07/14 01:57:59;;;;;;;14.63;8.82;;;;;;;20.03;66.79;93185.25;4773589;29;20178;-74
2022/07/14 02:00:25;;;;;;;17.08;8.82;;;;;;;20.00;67.13;93182.47;4785692;29;20042;-74
2022/07/14 02:02:58;;;;;;;12.63;8.88;;;;;;;19.90;68.36;93178.34;4805738;29;20034;-74
2022/07/14 02:05:27;;;;;;;13.07;9.05;;;;;;;19.90;67.92;93181.00;4789366;29;20050;-74
2022/07/14 02:07:53;;;;;;;12.15;9.15;;;;;;;19.88;67.91;93176.03;4775156;30;20040;-74
2022/07/14 02:13:07;;;;;;;14.27;8.88;;;;;;;19.84;68.11;93182.31;4776832;29;20050;-74
2022/07/14 02:15:33;;;;;;;15.23;9.20;;;;;;;19.80;68.15;93174.22;4789114;29;20039;-75
2022/07/14 02:17:59;;;;;;;17.08;8.57;;;;;;;19.78;68.26;93171.09;4770427;30;20051;-74
2022/07/14 02:20:25;;;;;;;12.93;8.65;;;;;;;19.75;68.67;93175.19;4787350;29;20042;-75
2022/07/14 02:22:50;;;;;;;17.08;9.50;;;;;;;19.72;68.79;93165.22;4780926;29;20039;-74
2022/07/14 02:25:16;;;;;;;13.48;8.65;;;;;;;19.70;68.74;93164.78;4745065;30;20209;-75
2022/07/14 02:27:42;;;;;;;13.45;9.02;;;;;;;19.69;68.79;93163.22;4770685;29;20031;-74
2022/07/14 02:30:08;;;;;;;15.63;9.40;;;;;;;19.68;68.50;93161.63;4773729;30;20122;-74
2022/07/14 02:32:36;;;;;;;15.13;9.02;;;;;;;19.68;68.90;93158.97;4786588;29;20047;-75
2022/07/14 02:35:03;;;;;;;15.80;9.48;;;;;;;19.67;68.89;93162.72;4793613;29;20053;-74
2022/07/14 02:37:28;;;;;;;18.50;9.48;;;;;;;19.66;68.90;93161.19;4805120;29;20046;-74
2022/07/14 02:39:54;;;;;;;14.55;9.48;;;;;;;19.66;69.11;93171.81;4788929;29;20051;-74
2022/07/14 02:42:19;;;;;;;19.50;9.48;;;;;;;19.65;69.12;93166.81;4774259;29;20038;-74
2022/07/14 02:44:45;;;;;;;13.60;9.05;;;;;;;19.65;68.96;93166.81;4771807;29;20035;-75
2022/07/14 02:47:12;;;;;;;17.13;9.25;;;;;;;19.62;69.91;93159.50;4787158;29;20054;-74
2022/07/14 02:49:37;;;;;;;16.02;8.73;;;;;;;19.58;69.98;93167.34;4788976;29;20030;-75
2022/07/14 02:52:03;;;;;;;16.38;9.23;;;;;;;19.56;70.12;93159.69;4773720;29;20054;-74
2022/07/14 02:54:31;;;;;;;14.20;9.75;;;;;;;19.54;70.37;93161.13;4783689;30;20053;-75
2022/07/14 02:56:57;;;;;;;17.60;9.38;;;;;;;19.52;70.12;93155.34;4771697;30;20039;-74
2022/07/14 02:59:23;;;;;;;13.93;9.25;;;;;;;19.48;70.38;93157.91;4770653;30;20039;-74
2022/07/14 03:01:50;;;;;;;13.10;9.40;;;;;;;19.48;69.93;93165.09;4756046;30;20480;-74
2022/07/14 03:04:20;;;;;;;21.17;10.07;;;;;;;19.46;70.62;93159.31;4770071;29;20069;-74
2022/07/14 03:06:46;;;;;;;20.25;9.68;;;;;;;19.46;70.04;93169.94;4772297;29;20165;-74
2022/07/14 03:09:16;;;;;;;17.13;9.70;;;;;;;19.43;70.19;93171.38;4786856;29;20081;-74
2022/07/14 03:11:42;;;;;;;15.27;10.05;;;;;;;19.42;70.14;93177.00;4788458;29;20027;-75
2022/07/14 03:14:09;;;;;;;21.38;10.10;;;;;;;19.40;70.41;93177.31;4802656;29;20529;-74
2022/07/14 03:16:34;;;;;;;14.80;10.00;;;;;;;19.37;70.76;93179.84;4787356;29;20110;-75
2022/07/14 03:19:06;;;;;;;14.27;9.07;;;;;;;19.34;70.48;93174.09;4788249;29;20043;-74
2022/07/14 03:21:32;;;;;;;17.10;10.43;;;;;;;19.32;70.48;93173.63;4772871;29;20063;-75
2022/07/14 03:23:59;;;;;;;14.35;10.00;;;;;;;19.30;70.89;93169.75;4788653;29;20043;-74
2022/07/14 03:26:30;;;;;;;16.98;10.23;;;;;;;19.26;70.84;93172.25;4786147;29;20042;-75
2022/07/14 03:28:56;;;;;;;15.98;10.13;;;;;;;19.23;71.28;93172.13;4786821;29;20076;-74
2022/07/14 03:31:23;;;;;;;18.15;10.27;;;;;;;19.19;71.45;93165.94;4774027;29;20039;-74
2022/07/14 03:33:49;;;;;;;16.23;9.60;;;;;;;19.16;71.30;93172.63;4777935;29;20478;-74
2022/07/14 03:36:16;;;;;;;15.93;10.30;;;;;;;19.15;71.81;93173.75;4785802;29;20051;-74
2022/07/14 03:38:42;;;;;;;16.52;10.30;;;;;;;19.15;71.77;93168.44;4788101;29;20172;-74
2022/07/14 03:41:10;;;;;;;14.32;10.18;;;;;;;19.16;71.96;93169.22;4787867;29;20035;-74
2022/07/14 03:43:37;;;;;;;22.23;10.98;;;;;;;19.16;72.12;93169.22;4786355;29;20035;-74
2022/07/14 03:46:04;;;;;;;16.98;10.32;;;;;;;19.16;72.08;93169.97;4774283;30;20082;-74
2022/07/14 03:48:32;;;;;;;20.77;11.45;;;;;;;19.19;72.21;93168.59;4772993;29;20060;-74
2022/07/14 03:51:01;;;;;;;19.13;11.25;;;;;;;19.20;72.16;93167.47;4788017;29;20507;-74
2022/07/14 03:53:30;;;;;;;16.95;10.98;;;;;;;19.21;72.60;93166.38;4772885;29;20565;-74
2022/07/14 03:55:57;;;;;;;16.85;10.95;;;;;;;19.23;72.89;93164.16;4780868;30;20399;-74
2022/07/14 03:58:24;;;;;;;16.60;10.35;;;;;;;19.24;72.56;93166.50;4770088;30;20050;-74
2022/07/14 04:00:50;;;;;;;18.23;11.18;;;;;;;19.26;72.94;93169.63;4755290;30;20047;-74
2022/07/14 04:03:17;;;;;;;19.10;11.23;;;;;;;19.28;72.82;93164.75;4785878;30;20126;-74
2022/07/14 04:05:43;;;;;;;18.70;10.60;;;;;;;19.30;72.68;93165.22;4769754;29;20138;-73
2022/07/14 04:08:13;;;;;;;17.98;10.60;;;;;;;19.32;72.76;93173.63;4770342;29;20043;-74
2022/07/14 04:10:45;;;;;;;16.10;10.82;;;;;;;19.34;72.88;93166.13;4769821;30;20038;-74
2022/07/14 04:13:11;;;;;;;19.33;10.80;;;;;;;19.37;72.53;93172.66;4781928;29;20417;-74
2022/07/14 04:15:38;;;;;;;17.70;11.15;;;;;;;19.40;73.00;93171.22;4786413;29;20571;-74
2022/07/14 04:18:03;;;;;;;19.40;11.45;;;;;;;19.42;73.12;93171.69;4773305;29;20031;-74
2022/07/14 04:20:29;;;;;;;16.45;11.57;;;;;;;19.43;73.72;93173.22;4788756;29;20077;-75
2022/07/14 04:22:56;;;;;;;17.75;11.50;;;;;;;19.46;74.27;93167.28;4775457;29;20060;-76
2022/07/14 04:25:22;;;;;;;19.63;11.70;;;;;;;19.46;74.15;93164.63;4777647;29;20082;-76
2022/07/14 04:27:48;;;;;;;15.48;10.82;;;;;;;19.49;73.53;93166.63;4780018;29;20081;-76
2022/07/14 04:30:15;;;;;;;22.10;11.88;;;;;;;19.51;73.85;93169.75;4760697;29;20043;-76
2022/07/14 04:32:41;;;;;;;14.65;11.25;;;;;;;19.54;73.74;93169.88;4773061;30;20039;-77
2022/07/14 04:35:08;;;;;;;18.48;11.55;;;;;;;19.57;73.76;93168.44;4780767;29;20043;-77
2022/07/14 04:37:34;;;;;;;19.52;11.90;;;;;;;19.60;72.95;93159.81;4762943;30;20096;-80
2022/07/14 04:40:06;;;;;;;16.40;11.90;;;;;;;19.67;72.27;93159.31;4772982;29;20043;-75
2022/07/14 04:42:32;;;;;;;18.08;12.05;;;;;;;19.70;72.85;93161.31;4776511;29;20043;-75
2022/07/14 04:44:58;;;;;;;20.75;11.55;;;;;;;19.75;73.46;93164.56;4769352;29;20046;-75
2022/07/14 04:47:24;;;;;;;18.67;11.85;;;;;;;19.79;73.46;93163.91;4775688;29;20458;-75
2022/07/14 04:52:48;;;;;;;19.70;12.45;;;;;;;19.86;73.78;93158.84;4778537;29;20081;-75
2022/07/14 04:55:45;;;;;;;20.33;12.93;;;;;;;19.89;74.13;93163.50;4796213;29;20076;-75
2022/07/14 04:58:30;;;;;;;30.25;12.88;;;;;;;19.93;74.30;93162.53;4793454;29;20413;-75
2022/07/14 05:01:00;;;;;;;17.90;12.50;;;;;;;19.97;74.33;93159.97;4788932;29;20070;-75
2022/07/14 05:03:30;;;;;;;19.55;11.90;;;;;;;20.02;75.08;93157.13;4765016;30;20044;-75
2022/07/14 05:05:56;;;;;;;20.13;12.40;;;;;;;20.07;75.35;93161.47;4788874;30;20405;-75
2022/07/14 05:08:21;;;;;;;17.52;12.73;;;;;;;20.11;74.99;93160.47;4772573;30;20050;-75
2022/07/14 05:10:49;;;;;;;30.23;13.20;;;;;;;20.17;74.45;93166.34;4757953;30;20468;-75
2022/07/14 05:13:14;;;;;;;22.42;13.07;;;;;;;20.22;74.15;93160.84;4768855;30;20050;-75
2022/07/14 05:15:40;;;;;;;17.88;13.07;;;;;;;20.27;74.59;93162.50;4772426;30;20074;-75
2022/07/14 05:18:06;;;;;;;26.05;13.05;;;;;;;20.33;74.54;93161.97;4788662;30;20031;-75
2022/07/14 05:20:32;;;;;;;23.02;13.25;;;;;;;20.41;74.32;93167.50;4772257;30;20047;-75
2022/07/14 05:22:57;;;;;;;23.30;13.50;;;;;;;20.51;74.29;93178.50;4772412;29;20036;-75
2022/07/14 05:25:23;;;;;;;21.17;13.77;;;;;;;20.59;73.69;93161.66;4773110;30;20059;-75
2022/07/14 05:27:49;;;;;;;20.63;13.48;;;;;;;20.70;73.42;93162.00;4757575;30;20092;-75
2022/07/14 05:30:33;;;;;;;29.02;13.85;;;;;;;20.80;73.86;93168.75;4759616;30;20054;-75
2022/07/14 05:32:59;;;;;;;23.10;13.95;;;;;;;20.90;73.44;93167.56;4771970;30;20052;-75
2022/07/14 05:35:27;;;;;;;23.95;14.07;;;;;;;20.98;72.29;93164.78;4782447;29;20456;-75
2022/07/14 05:37:54;;;;;;;29.67;14.50;;;;;;;21.06;72.21;93165.00;4775269;29;20399;-75
2022/07/14 05:40:20;;;;;;;26.88;13.95;;;;;;;21.13;71.94;93151.88;4789202;29;20054;-75
2022/07/14 05:42:46;;;;;;;22.60;13.30;;;;;;;21.23;72.02;93166.59;4790108;29;20059;-74
2022/07/14 05:45:12;;;;;;;22.88;14.20;;;;;;;21.26;71.77;93169.38;4788360;29;20548;-74
2022/07/14 05:47:38;;;;;;;30.98;14.98;;;;;;;21.31;72.01;93165.72;4790118;29;20509;-74
2022/07/14 05:50:05;;;;;;;22.48;13.70;;;;;;;21.35;71.75;93164.72;4789834;29;20643;-74
2022/07/14 05:52:31;;;;;;;24.35;15.27;;;;;;;21.39;72.48;93173.56;4774712;29;20572;-74
2022/07/14 05:55:00;;;;;;;32.53;14.55;;;;;;;21.45;72.39;93170.69;4788047;29;20039;-74
2022/07/14 05:57:27;;;;;;;22.98;14.13;;;;;;;21.50;71.84;93173.88;4778016;30;20039;-74
2022/07/14 05:59:53;;;;;;;25.98;15.38;;;;;;;21.51;72.34;93172.78;4771623;30;20047;-74
2022/07/14 06:02:19;;;;;;;34.83;15.18;;;;;;;21.64;72.72;93173.53;4771615;30;20074;-74
2022/07/14 06:04:45;;;;;;;31.70;15.63;;;;;;;21.67;72.89;93172.84;4787609;30;20525;-74
2022/07/14 06:07:11;;;;;;;25.50;15.48;;;;;;;21.73;72.88;93168.84;4780764;29;20064;-74
2022/07/14 06:09:40;;;;;;;25.20;15.63;;;;;;;21.80;73.50;93171.69;4807343;29;20042;-74
2022/07/14 06:12:08;;;;;;;30.05;15.90;;;;;;;21.81;72.04;93173.22;4807690;29;20091;-75
2022/07/14 06:14:36;;;;;;;28.40;15.93;;;;;;;21.78;70.68;93162.50;4807659;29;20497;-74
2022/07/14 06:17:02;;;;;;;35.53;16.33;;;;;;;21.75;71.79;93163.94;4791603;29;20057;-74
2022/07/14 06:19:28;;;;;;;27.10;15.63;;;;;;;21.87;70.59;93160.47;4788538;29;20406;-74
2022/07/14 06:21:53;;;;;;;25.58;15.18;;;;;;;21.91;70.74;93168.53;4771041;30;20051;-74
2022/07/14 06:24:21;;;;;;;28.00;15.35;;;;;;;21.80;70.92;93161.03;4757482;30;20044;-74
2022/07/14 06:26:47;;;;;;;26.92;16.15;;;;;;;21.83;72.21;93160.34;4756402;30;20044;-74
2022/07/14 06:29:13;;;;;;;27.52;16.08;;;;;;;21.80;72.77;93165.59;4799260;29;20382;-74
2022/07/14 06:31:39;;;;;;;28.75;16.38;;;;;;;21.72;74.46;93172.59;4805272;29;20078;-74
2022/07/14 06:34:06;;;;;;;29.85;15.93;;;;;;;21.76;73.56;93176.16;4774086;29;20073;-74
2022/07/14 06:36:52;;;;;;;37.50;16.13;;;;;;;21.81;73.72;93177.78;4788806;29;20141;-74
2022/07/14 06:39:18;;;;;;;38.95;16.60;;;;;;;21.85;73.39;93167.25;4803563;29;20137;-74
2022/07/14 06:41:43;;;;;;;26.48;15.50;;;;;;;21.86;71.34;93174.09;4788728;29;20038;-74
2022/07/14 06:44:11;;;;;;;34.38;16.80;;;;;;;21.86;72.29;93179.44;4788818;29;20058;-74
2022/07/14 06:46:38;;;;;;;25.90;15.40;;;;;;;21.88;72.37;93171.88;4774006;29;20051;-75
2022/07/14 06:49:04;;;;;;;28.75;14.80;;;;;;;21.85;72.54;93178.66;4787103;29;20114;-75
2022/07/14 06:51:30;;;;;;;25.58;14.65;;;;;;;21.85;70.82;93177.91;4803715;29;20405;-73
2022/07/14 06:53:56;;;;;;;25.25;15.13;;;;;;;21.86;70.87;93180.22;4788644;29;20043;-74
2022/07/14 06:56:21;;;;;;;23.63;15.52;;;;;;;21.83;74.21;93180.91;4804804;29;20035;-76
2022/07/14 06:58:47;;;;;;;32.03;15.20;;;;;;;21.84;74.25;93182.44;4788522;29;20043;-74
2022/07/14 07:01:13;;;;;;;25.58;14.77;;;;;;;21.86;72.14;93182.09;4771348;29;20047;-75
2022/07/14 07:03:38;;;;;;;23.67;14.30;;;;;;;21.89;71.80;93178.78;4737752;29;20096;-75
2022/07/14 07:08:48;;;;;;;24.33;14.65;;;;;;;21.77;74.47;93177.72;4794678;29;20049;-74
2022/07/14 07:11:14;;;;;;;29.52;14.23;;;;;;;21.75;74.28;93182.59;4790777;29;20031;-74
2022/07/14 07:13:39;;;;;;;30.60;13.73;;;;;;;21.75;73.95;93190.59;4786485;30;20104;-74
2022/07/14 07:16:08;;;;;;;26.40;13.20;;;;;;;21.75;74.46;93193.25;4786713;29;20055;-76
2022/07/14 07:18:35;;;;;;;23.35;13.02;;;;;;;21.73;74.54;93192.81;4786514;30;20038;-76
2022/07/14 07:21:01;;;;;;;19.80;12.38;;;;;;;21.72;73.56;93190.50;4780608;29;20081;-73
2022/07/14 07:23:27;;;;;;;21.40;12.77;;;;;;;21.74;73.44;93181.03;4804818;29;20067;-74
2022/07/14 07:25:53;;;;;;;17.10;11.98;;;;;;;21.81;73.77;93178.56;4788265;29;20051;-74
2022/07/14 07:28:19;;;;;;;18.88;10.98;;;;;;;21.80;74.24;93181.59;4804366;29;20049;-76
2022/07/14 07:30:44;;;;;;;18.05;11.32;;;;;;;21.69;74.19;93181.28;4772022;29;20051;-76
2022/07/14 07:33:10;;;;;;;16.98;11.30;;;;;;;21.76;73.93;93178.81;4772462;29;20134;-76
2022/07/14 07:35:36;;;;;;;17.35;11.15;;;;;;;21.71;73.49;93176.41;4773609;29;20061;-76
2022/07/14 07:38:01;;;;;;;17.40;10.23;;;;;;;21.73;72.96;93171.50;4804129;29;20173;-76
2022/07/14 07:40:27;;;;;;;15.50;10.35;;;;;;;21.80;73.32;93166.38;4787890;29;20043;-76
2022/07/14 07:42:53;;;;;;;17.17;10.07;;;;;;;21.89;73.06;93162.78;4772669;29;20035;-76
2022/07/14 07:45:18;;;;;;;16.35;9.55;;;;;;;21.95;71.13;93169.41;4804106;29;20034;-76
2022/07/14 07:47:44;;;;;;;17.35;9.63;;;;;;;22.01;71.33;93166.16;4788039;29;20056;-76
2022/07/14 07:50:10;;;;;;;17.00;9.73;;;;;;;22.04;69.63;93168.16;4787293;29;20043;-76
2022/07/14 07:52:38;;;;;;;23.45;10.00;;;;;;;22.04;68.41;93164.69;4802221;29;20027;-76
2022/07/14 07:55:10;;;;;;;12.85;9.18;;;;;;;22.13;70.25;93161.88;4787834;29;20087;-76
2022/07/14 07:57:36;;;;;;;18.15;8.55;;;;;;;22.17;70.61;93168.84;4803663;29;20130;-76
2022/07/14 08:00:04;;;;;;;16.13;8.13;;;;;;;22.19;71.48;93160.50;4791648;29;20445;-75
2022/07/14 08:02:49;;;;;;;19.20;9.45;;;;;;;22.22;70.21;93160.66;4792488;29;20402;-76
2022/07/14 08:05:22;;;;;;;18.92;8.45;;;;;;;22.30;70.63;93164.25;4784494;29;20129;-76
2022/07/14 08:07:51;;;;;;;11.40;7.63;;;;;;;22.35;70.83;93160.56;4790723;29;20557;-76
2022/07/14 08:10:17;;;;;;;14.30;8.20;;;;;;;22.41;69.40;93161.88;4787713;29;20038;-76
2022/07/14 08:12:43;;;;;;;11.30;7.03;;;;;;;22.50;69.29;93157.13;4773888;30;20130;-76
2022/07/14 08:15:10;;;;;;;13.02;7.50;;;;;;;22.54;68.61;93160.66;4770474;30;20126;-76
2022/07/14 08:17:36;;;;;;;14.73;7.72;;;;;;;22.54;67.94;93157.19;4786255;29;20043;-76
2022/07/14 08:20:03;;;;;;;19.40;7.95;;;;;;;22.53;66.12;93153.75;4802485;29;20046;-76
2022/07/14 08:22:29;;;;;;;15.57;6.90;;;;;;;22.51;66.07;93150.66;4785777;29;20055;-76
2022/07/14 08:24:56;;;;;;;12.80;6.78;;;;;;;22.60;64.74;93153.94;4780749;29;20521;-76
2022/07/14 08:27:22;;;;;;;15.32;7.32;;;;;;;22.74;62.88;93152.72;4780699;30;20085;-76
2022/07/14 08:29:48;;;;;;;14.80;7.38;;;;;;;;;;4786221;29;20122;-76
2022/07/14 08:32:14;;;;;;;13.63;7.40;;;;;;;23.32;62.35;93160.13;4787019;29;20110;-76
2022/07/14 08:34:40;;;;;;;9.52;6.60;;;;;;;23.36;60.01;93161.75;4786496;29;20059;-76
2022/07/14 08:37:06;;;;;;;12.40;6.40;;;;;;;23.35;62.32;93160.22;4772112;29;20495;-76
2022/07/14 08:39:33;;;;;;;12.23;6.60;;;;;;;23.36;60.28;93161.75;4773089;29;20039;-76
2022/07/14 08:42:03;;;;;;;15.82;6.68;;;;;;;23.38;62.46;93162.19;4803527;29;20117;-76
2022/07/14 08:44:28;;;;;;;13.32;6.95;;;;;;;23.56;62.69;93156.44;4802359;29;20471;-76
2022/07/14 08:46:55;;;;;;;11.52;6.65;;;;;;;23.45;60.69;93159.66;4770170;29;20066;-75
2022/07/14 08:49:21;;;;;;;9.65;6.10;;;;;;;23.31;61.88;93162.03;4775697;29;20107;-76
2022/07/14 08:51:49;;;;;;;13.68;7.05;;;;;;;23.31;59.93;93159.38;4787930;29;20038;-76
2022/07/14 08:54:16;;;;;;;9.68;7.30;;;;;;;23.52;63.97;93155.59;4780651;29;20864;-76
2022/07/14 08:56:42;;;;;;;14.77;7.35;;;;;;;23.54;62.78;93150.69;4791074;29;20047;-78
2022/07/14 08:59:09;;;;;;;12.43;6.72;;;;;;;23.51;62.75;93157.50;4793663;29;21885;-77
2022/07/14 09:01:35;;;;;;;10.68;6.32;;;;;;;23.53;60.31;93152.59;4788812;29;20043;-77
2022/07/14 09:04:01;;;;;;;11.50;6.55;;;;;;;23.38;58.99;93158.75;4771455;29;20390;-77
2022/07/14 09:06:53;;;;;;;9.05;6.38;;;;;;;23.62;61.29;93161.16;4786234;29;20042;-77
2022/07/14 09:09:28;;;;;;;11.63;6.20;;;;;;;23.58;60.59;93156.88;4796760;29;20035;-77
2022/07/14 09:12:04;;;;;;;15.57;7.18;;;;;;;23.79;63.27;93149.28;4780537;29;20039;-77
2022/07/14 09:17:18;;;;;;;9.88;5.85;;;;;;;23.90;57.52;93147.59;4797852;29;20050;-77
2022/07/14 09:20:13;;;;;;;13.02;5.90;;;;;;;23.67;59.75;93144.06;4773219;29;20141;-77
2022/07/14 09:22:41;;;;;;;13.98;5.75;;;;;;;23.78;60.42;93153.09;4789940;29;20051;-77
2022/07/14 09:25:12;;;;;;;11.55;6.63;;;;;;;23.78;65.01;93155.78;4781728;29;20053;-77
2022/07/14 09:27:39;;;;;;;12.02;6.28;;;;;;;23.87;61.49;93152.88;4778977;29;20043;-77
2022/07/14 09:30:06;;;;;;;9.13;5.78;;;;;;;23.78;61.23;93153.09;4787812;29;20608;-77
2022/07/14 09:32:58;;;;;;;10.60;5.90;;;;;;;23.77;59.39;93162.22;4778712;29;20049;-77
2022/07/14 09:35:38;;;;;;;11.48;5.47;;;;;;;24.46;58.04;93151.63;4789001;29;20110;-77
2022/07/14 09:38:13;;;;;;;11.45;5.43;;;;;;;24.65;56.31;93150.81;4806400;29;20035;-77
2022/07/14 09:40:39;;;;;;;10.43;5.68;;;;;;;24.87;55.99;93143.91;4789450;29;20039;-77
2022/07/14 09:43:06;;;;;;;11.82;5.47;;;;;;;25.13;55.32;93143.13;4788928;29;20046;-77
2022/07/14 09:45:37;;;;;;;12.57;5.82;;;;;;;24.93;54.71;93149.72;4772216;29;20061;-77
2022/07/14 09:48:08;;;;;;;9.73;6.00;;;;;;;24.88;56.07;93139.31;4777851;29;20031;-77
2022/07/14 09:50:48;;;;;;;10.13;5.67;;;;;;;24.94;59.09;93148.59;4767316;29;20035;-77
2022/07/14 09:53:18;;;;;;;8.82;5.75;;;;;;;25.16;60.24;93148.91;4794092;29;20083;-77
2022/07/14 09:55:53;;;;;;;10.00;5.25;;;;;;;25.37;58.40;93151.91;4778581;29;20046;-77
2022/07/14 09:58:21;;;;;;;11.60;5.72;;;;;;;25.40;59.48;93151.19;4772621;29;20401;-77
2022/07/14 10:00:58;;;;;;;9.30;5.28;;;;;;;25.23;59.66;93141.00;4775971;29;20038;-77
2022/07/14 10:03:25;;;;;;;10.20;5.40;;;;;;;25.08;59.11;93137.31;4796714;29;20114;-77
2022/07/14 10:05:54;;;;;;;8.85;5.70;;;;;;;24.88;64.21;93145.47;4800860;29;20116;-77
2022/07/14 10:08:24;;;;;;;7.70;5.30;;;;;;;25.25;57.80;93147.53;4771575;30;20522;-77
2022/07/14 10:10:50;;;;;;;8.40;5.75;;;;;;;25.55;62.76;93147.53;4787314;29;20537;-77
2022/07/14 10:13:17;;;;;;;8.02;5.60;;;;;;;25.44;60.75;93148.53;4798988;29;20068;-78
2022/07/14 10:15:44;;;;;;;8.57;5.70;;;;;;;25.22;58.60;93136.75;4784148;30;20039;-77
2022/07/14 10:18:11;;;;;;;6.32;5.07;;;;;;;25.47;60.07;93134.44;4796921;29;20485;-77
2022/07/14 10:20:39;;;;;;;9.18;5.75;;;;;;;25.59;61.23;93130.75;4786201;29;20053;-77
2022/07/14 10:23:05;;;;;;;7.47;4.85;;;;;;;25.28;59.89;93135.31;4782325;29;20049;-77
2022/07/14 10:25:31;;;;;;;11.05;5.40;;;;;;;25.24;59.61;93126.44;4792385;29;20043;-77
2022/07/14 10:27:57;;;;;;;8.43;5.40;;;;;;;25.27;60.16;93123.84;4779605;29;20502;-78
2022/07/14 10:30:45;;;;;;;13.40;6.10;;;;;;;25.40;61.13;93126.28;4771969;30;20119;-77
2022/07/14 10:33:23;;;;;;;11.27;5.35;;;;;;;25.35;60.10;93127.38;4796922;29;20046;-77
2022/07/14 10:36:04;;;;;;;9.23;5.05;;;;;;;25.55;60.65;93123.41;4791424;29;20265;-77
2022/07/14 10:39:02;;;;;;;9.52;5.68;;;;;;;25.41;60.82;93127.84;4796987;29;20047;-77
2022/07/14 10:41:46;;;;;;;8.40;5.30;;;;;;;25.61;59.49;93126.56;4765397;29;20067;-77
2022/07/14 10:44:16;;;;;;;8.02;4.88;;;;;;;25.76;58.05;93132.88;4771924;29;20035;-77
2022/07/14 10:46:47;;;;;;;7.70;5.28;;;;;;;25.73;58.07;93128.97;4789216;29;20057;-77
2022/07/14 10:49:15;;;;;;;8.15;5.07;;;;;;;25.70;58.07;93134.31;4795515;29;20030;-77
2022/07/14 10:51:52;;;;;;;12.43;5.18;;;;;;;25.65;58.38;93123.94;4793787;29;20374;-78
2022/07/14 10:54:30;;;;;;;11.25;5.00;;;;;;;25.83;55.62;93129.50;4806118;29;20046;-78
2022/07/14 10:57:09;;;;;;;7.85;4.93;;;;;;;25.94;56.09;93131.19;4783891;29;20045;-78
2022/07/14 10:59:36;;;;;;;9.30;4.63;;;;;;;25.92;54.25;93130.78;4792662;29;20577;-78
2022/07/14 11:02:11;;;;;;;5.35;4.22;;;;;;;26.00;55.16;93128.91;4791160;29;20043;-78
2022/07/14 11:04:59;;;;;;;8.45;4.75;;;;;;;25.93;55.12;93121.56;4794410;29;20119;-77
2022/07/14 11:07:46;;;;;;;5.90;4.10;;;;;;;26.09;55.22;93126.72;4784788;29;20039;-77
2022/07/14 11:10:18;;;;;;;8.95;4.90;;;;;;;26.31;52.63;93122.31;4786669;29;20426;-78
2022/07/14 11:12:59;;;;;;;11.40;4.50;;;;;;;26.06;53.61;93124.78;4776210;29;20063;-78
2022/07/14 11:15:45;;;;;;;11.43;7.85;;;;;;;26.09;53.14;93118.66;4787383;30;20400;-77
2022/07/14 11:18:26;;;;;;;7.70;4.55;;;;;;;26.37;52.66;93118.19;4796835;29;20031;-78
2022/07/14 11:20:59;;;;;;;10.52;4.10;;;;;;;26.37;51.79;93123.53;4797942;29;20039;-77
2022/07/14 11:23:30;;;;;;;10.27;4.63;;;;;;;26.44;53.08;93119.38;4772256;30;20059;-77
2022/07/14 11:25:57;;;;;;;9.75;4.75;;;;;;;26.39;52.74;93109.75;4787421;30;20067;-78
2022/07/14 11:28:48;;;;;;;8.45;4.43;;;;;;;26.56;53.76;93116.44;4771432;30;20102;-77
2022/07/14 11:31:17;;;;;;;6.03;4.55;;;;;;;26.60;51.70;93113.78;4787548;30;20070;-77
2022/07/14 11:37:00;;;;;;;9.48;4.65;;;;;;;26.77;51.40;93113.13;4787182;30;20490;-77
2022/07/14 11:39:32;;;;;;;7.53;4.60;;;;;;;26.69;51.66;93100.81;4799592;29;20030;-77
2022/07/14 11:42:04;;;;;;;10.57;4.53;;;;;;;26.77;52.59;93107.75;4805866;29;20461;-77
2022/07/14 11:44:33;;;;;;;13.32;6.22;;;;;;;26.85;50.69;93100.53;4805629;29;20058;-77